Time;durP1;ratioP1;P1;durP2;ratioP2;P2;SDS_P1;SDS_P2;PMS_P1;PMS_P2;Temp;Humidity;BMP_temperature;BMP_pressure;BME280_temperature;BME280_humidity;BME280_pressure;Samples;Min_cycle;Max_cycle;Signal;HPM_P1;HPM_P2
2022/02/19 00:00:55;;;;;;;11.70;2.27;;;6.90;99.90;;;;;;5059241;28;20197;-96
2022/02/19 00:03:21;;;;;;;10.70;2.43;;;6.80;99.90;;;;;;5058038;28;20601;-93
2022/02/19 00:05:47;;;;;;;8.63;1.87;;;6.80;99.90;;;;;;5058570;28;20620;-91
2022/02/19 00:08:13;;;;;;;7.73;1.40;;;6.90;99.90;;;;;;5057133;28;20182;-93
2022/02/19 00:10:42;;;;;;;10.30;2.27;;;6.90;99.90;;;;;;5057176;28;20208;-94
2022/02/19 00:13:09;;;;;;;10.70;1.93;;;6.90;99.90;;;;;;5058575;28;20174;-95
2022/02/19 00:15:36;;;;;;;8.10;1.97;;;6.80;99.90;;;;;;5058170;28;20166;-95
2022/02/19 00:18:02;;;;;;;12.13;1.90;;;6.90;99.90;;;;;;5058434;28;20212;-96
2022/02/19 00:20:27;;;;;;;8.50;2.20;;;6.90;99.90;;;;;;5058257;28;20174;-96
2022/02/19 00:22:54;;;;;;;9.20;2.27;;;6.80;99.90;;;;;;5058895;28;20613;-95
2022/02/19 00:25:20;;;;;;;14.83;2.37;;;6.90;99.90;;;;;;5062837;28;20173;-95
2022/02/19 00:27:47;;;;;;;13.73;2.33;;;6.80;99.90;;;;;;5060556;28;20177;-95
2022/02/19 00:30:12;;;;;;;9.33;2.40;;;6.80;99.90;;;;;;5060373;28;20657;-94
2022/02/19 00:32:38;;;;;;;12.07;2.57;;;6.80;99.90;;;;;;5060259;28;20181;-94
2022/02/19 00:35:04;;;;;;;7.23;1.87;;;6.80;99.90;;;;;;5060332;28;20213;-93
2022/02/19 00:37:30;;;;;;;14.33;2.27;;;6.80;99.90;;;;;;5060305;28;20220;-94
2022/02/19 00:39:56;;;;;;;16.33;2.47;;;6.80;99.90;;;;;;5060318;28;20509;-93
2022/02/19 00:42:22;;;;;;;10.03;2.00;;;6.80;99.90;;;;;;5060123;28;20186;-93
2022/02/19 00:44:48;;;;;;;8.87;2.23;;;6.70;99.90;;;;;;5077189;28;20166;-93
2022/02/19 00:47:14;;;;;;;7.37;1.87;;;6.70;99.90;;;;;;5078221;28;20177;-94
2022/02/19 00:49:40;;;;;;;13.90;2.33;;;6.70;99.90;;;;;;5078073;28;20199;-96
2022/02/19 00:52:07;;;;;;;8.33;1.93;;;6.70;99.90;;;;;;5077733;28;20235;-92
2022/02/19 00:54:33;;;;;;;10.60;2.10;;;6.70;99.90;;;;;;5060115;28;20268;-93
2022/02/19 00:56:59;;;;;;;14.57;2.40;;;6.70;99.90;;;;;;5041376;28;20186;-95
2022/02/19 00:59:24;;;;;;;8.90;2.37;;;6.70;99.90;;;;;;5057989;28;20174;-94
2022/02/19 01:01:50;;;;;;;11.23;2.07;;;6.70;99.90;;;;;;5040494;28;20205;-96
2022/02/19 01:04:16;;;;;;;9.87;2.27;;;6.60;99.90;;;;;;5057940;28;20270;-93
2022/02/19 01:06:41;;;;;;;11.17;2.00;;;6.60;99.90;;;;;;5039278;28;20261;-93
2022/02/19 01:09:07;;;;;;;8.67;2.10;;;6.70;99.90;;;;;;5039490;28;20174;-94
2022/02/19 01:11:33;;;;;;;11.53;1.93;;;6.70;99.90;;;;;;5057099;28;20213;-94
2022/02/19 01:13:59;;;;;;;13.97;2.53;;;6.70;99.90;;;;;;5039718;28;20206;-93
2022/02/19 01:16:24;;;;;;;9.10;2.03;;;6.70;99.90;;;;;;5057000;28;20178;-93
2022/02/19 01:18:50;;;;;;;13.07;2.67;;;6.70;99.90;;;;;;5040024;28;20240;-95
2022/02/19 01:21:17;;;;;;;14.33;2.07;;;6.70;99.90;;;;;;5056784;28;20583;-93
2022/02/19 01:23:43;;;;;;;14.60;2.80;;;6.70;99.90;;;;;;5056938;28;20561;-93
2022/02/19 01:26:09;;;;;;;12.10;2.30;;;6.60;99.90;;;;;;5050238;28;20177;-95
2022/02/19 01:28:35;;;;;;;10.20;2.70;;;6.60;99.90;;;;;;5077039;28;20173;-93
2022/02/19 01:31:00;;;;;;;11.23;2.47;;;6.60;99.90;;;;;;5077093;28;20222;-95
2022/02/19 01:33:26;;;;;;;9.50;1.93;;;6.70;99.90;;;;;;5077208;28;20191;-94
2022/02/19 01:35:52;;;;;;;14.30;2.37;;;6.60;99.90;;;;;;5059051;28;20225;-95
2022/02/19 01:40:54;;;;;;;10.87;1.90;;;6.60;99.90;;;;;;5084454;23;20245;-94
2022/02/19 01:43:20;;;;;;;12.77;2.00;;;6.60;99.90;;;;;;5037033;28;20189;-90
2022/02/19 01:45:48;;;;;;;7.23;1.70;;;6.50;99.90;;;;;;5018981;28;20182;-91
2022/02/19 01:48:15;;;;;;;10.60;2.57;;;6.50;99.90;;;;;;5018687;28;20178;-91
2022/02/19 01:50:42;;;;;;;11.00;1.97;;;6.50;99.90;;;;;;5018496;28;20191;-91
2022/02/19 01:53:09;;;;;;;17.00;2.70;;;6.50;99.90;;;;;;5019216;28;20269;-90
2022/02/19 01:55:35;;;;;;;11.60;2.30;;;6.50;99.90;;;;;;5018733;28;20202;-91
2022/02/19 01:58:02;;;;;;;8.63;1.97;;;6.50;99.90;;;;;;5018391;28;20210;-90
2022/02/19 02:00:29;;;;;;;8.10;1.87;;;6.40;99.90;;;;;;5018716;28;20201;-91
2022/02/19 02:02:56;;;;;;;9.87;1.83;;;6.50;99.90;;;;;;5018430;28;20532;-92
2022/02/19 02:05:22;;;;;;;8.43;1.60;;;6.40;99.90;;;;;;5018734;28;20181;-89
2022/02/19 02:07:48;;;;;;;5.53;1.50;;;6.50;99.90;;;;;;5036450;28;20174;-93
2022/02/19 02:10:14;;;;;;;9.00;1.50;;;6.50;99.90;;;;;;5018815;28;20264;-91
2022/02/19 02:12:40;;;;;;;9.30;1.80;;;6.50;99.90;;;;;;5018792;28;20186;-91
2022/02/19 02:15:25;;;;;;;11.10;2.53;;;6.50;99.90;;;;;;5018649;28;20179;-90
2022/02/19 02:17:50;;;;;;;11.47;2.17;;;6.40;99.90;;;;;;5018308;28;20205;-92
2022/02/19 02:20:17;;;;;;;14.57;1.73;;;6.40;99.90;;;;;;5036632;28;20506;-92
2022/02/19 02:22:43;;;;;;;10.50;2.03;;;6.30;99.90;;;;;;5002330;28;20527;-91
2022/02/19 02:25:11;;;;;;;9.40;1.93;;;6.30;99.90;;;;;;5018619;28;20236;-87
2022/02/19 02:27:37;;;;;;;7.27;1.63;;;6.20;99.90;;;;;;5018104;28;20261;-91
2022/02/19 02:30:05;;;;;;;6.50;1.57;;;6.20;99.90;;;;;;5017592;28;20206;-89
2022/02/19 02:32:30;;;;;;;4.83;1.47;;;6.10;99.90;;;;;;5017726;28;20171;-89
2022/02/19 02:34:56;;;;;;;9.73;2.40;;;6.10;99.90;;;;;;5018033;28;20525;-87
2022/02/19 02:37:24;;;;;;;5.93;1.40;;;6.10;99.90;;;;;;5017711;28;20213;-89
2022/02/19 02:39:51;;;;;;;5.20;1.30;;;6.10;99.90;;;;;;5017443;28;20271;-89
2022/02/19 02:42:19;;;;;;;5.60;1.40;;;6.10;99.90;;;;;;5017604;28;20178;-90
2022/02/19 02:44:46;;;;;;;12.20;2.03;;;6.10;99.90;;;;;;5017351;28;20557;-91
2022/02/19 02:47:12;;;;;;;6.77;1.50;;;6.10;99.90;;;;;;5017658;28;20186;-88
2022/02/19 02:49:38;;;;;;;17.27;1.80;;;6.10;99.90;;;;;;5017941;28;20174;-90
2022/02/19 02:52:05;;;;;;;9.83;1.60;;;6.10;99.90;;;;;;5017758;28;20178;-89
2022/02/19 02:54:31;;;;;;;9.67;1.60;;;6.10;99.90;;;;;;5017622;28;20667;-92
2022/02/19 02:56:57;;;;;;;5.73;1.53;;;6.10;99.90;;;;;;5017326;28;20190;-89
2022/02/19 02:59:23;;;;;;;5.30;1.60;;;6.10;99.90;;;;;;5035245;28;20236;-89
2022/02/19 03:01:48;;;;;;;7.10;1.43;;;6.10;99.90;;;;;;5017549;28;20186;-92
2022/02/19 03:04:14;;;;;;;6.73;1.73;;;6.00;99.90;;;;;;5017631;28;20167;-86
2022/02/19 03:06:40;;;;;;;6.20;1.53;;;6.10;99.90;;;;;;5017315;28;20182;-90
2022/02/19 03:09:05;;;;;;;6.70;1.37;;;6.10;99.90;;;;;;5020729;28;20213;-89
2022/02/19 03:11:31;;;;;;;7.73;1.47;;;6.10;99.90;;;;;;5021832;28;20174;-89
2022/02/19 03:13:57;;;;;;;7.50;1.73;;;6.00;99.90;;;;;;5021395;28;20170;-90
2022/02/19 03:16:22;;;;;;;13.67;1.87;;;6.00;99.90;;;;;;5021370;28;20185;-90
2022/02/19 03:18:48;;;;;;;6.93;1.63;;;5.90;99.90;;;;;;5021148;28;20210;-87
2022/02/19 03:21:14;;;;;;;6.67;1.70;;;5.90;99.90;;;;;;5021226;28;20517;-92
2022/02/19 03:23:39;;;;;;;5.33;1.30;;;5.90;99.90;;;;;;5021486;28;20242;-90
2022/02/19 03:26:07;;;;;;;9.93;1.50;;;5.80;99.90;;;;;;5021205;28;20186;-88
2022/02/19 03:28:33;;;;;;;9.03;1.50;;;5.80;99.90;;;;;;5019151;28;20270;-89
2022/02/19 03:30:59;;;;;;;6.30;1.50;;;5.80;99.90;;;;;;5001498;28;20182;-90
2022/02/19 03:33:25;;;;;;;7.43;1.57;;;5.70;99.90;;;;;;5019218;28;20167;-91
2022/02/19 03:35:51;;;;;;;6.60;1.47;;;5.60;99.90;;;;;;5017770;28;20562;-89
2022/02/19 03:38:17;;;;;;;8.87;1.73;;;5.50;99.90;;;;;;5001221;28;20608;-90
2022/02/19 03:40:42;;;;;;;8.40;1.77;;;5.40;99.90;;;;;;5001366;28;20693;-90
2022/02/19 03:43:08;;;;;;;8.53;1.30;;;5.40;99.90;;;;;;5001349;28;20278;-90
2022/02/19 03:45:37;;;;;;;6.23;1.93;;;5.30;99.90;;;;;;5000907;28;20190;-92
2022/02/19 03:48:02;;;;;;;8.37;1.30;;;5.30;99.90;;;;;;5000956;28;20214;-88
2022/02/19 03:50:28;;;;;;;6.20;1.47;;;5.30;99.90;;;;;;5017665;28;20207;-90
2022/02/19 03:52:55;;;;;;;8.17;1.67;;;5.20;99.90;;;;;;5018663;28;20171;-92
2022/02/19 03:55:21;;;;;;;5.17;1.50;;;5.30;99.90;;;;;;5018606;28;20621;-91
2022/02/19 03:57:46;;;;;;;8.33;1.87;;;5.30;99.90;;;;;;5000633;28;20218;-89
2022/02/19 04:00:14;;;;;;;8.03;1.63;;;5.20;99.90;;;;;;5015127;28;20194;-90
2022/02/19 04:02:43;;;;;;;7.10;1.30;;;5.20;99.90;;;;;;5020460;28;20265;-89
2022/02/19 04:05:11;;;;;;;5.03;1.10;;;5.20;99.90;;;;;;5020397;28;20191;-90
2022/02/19 04:07:37;;;;;;;13.87;2.20;;;5.20;99.90;;;;;;5020484;28;20179;-89
2022/02/19 04:10:04;;;;;;;7.63;1.70;;;5.20;99.90;;;;;;5020327;28;20277;-88
2022/02/19 04:12:31;;;;;;;5.50;1.20;;;5.10;99.90;;;;;;5020323;28;20186;-93
2022/02/19 04:14:57;;;;;;;5.93;1.20;;;5.10;99.90;;;;;;5020217;28;20337;-87
2022/02/19 04:17:23;;;;;;;6.00;1.40;;;5.20;99.90;;;;;;5020100;28;20300;-89
2022/02/19 04:19:50;;;;;;;11.40;2.20;;;5.10;99.90;;;;;;5019124;28;20194;-89
2022/02/19 04:22:16;;;;;;;6.93;1.40;;;5.10;99.90;;;;;;5020433;28;20548;-88
2022/02/19 04:24:42;;;;;;;14.20;2.40;;;5.10;99.90;;;;;;5019985;28;20178;-87
2022/02/19 04:27:08;;;;;;;12.13;2.07;;;5.00;99.90;;;;;;5020231;28;20175;-88
2022/02/19 04:29:34;;;;;;;9.27;1.53;;;5.00;99.90;;;;;;5020282;28;20202;-89
2022/02/19 04:32:00;;;;;;;11.47;2.00;;;4.90;99.90;;;;;;5019777;28;20187;-88
2022/02/19 04:34:26;;;;;;;8.03;1.87;;;4.80;99.90;;;;;;5020217;28;20182;-88
2022/02/19 04:36:52;;;;;;;3.90;1.20;;;4.70;99.90;;;;;;5019596;28;20512;-87
2022/02/19 04:39:18;;;;;;;9.60;1.70;;;4.70;99.90;;;;;;5037034;28;20268;-92
2022/02/19 04:41:44;;;;;;;9.20;2.00;;;4.70;99.90;;;;;;5020048;28;20182;-87
2022/02/19 04:44:10;;;;;;;8.77;1.73;;;4.70;99.90;;;;;;5037477;28;20171;-90
2022/02/19 04:46:36;;;;;;;8.47;1.57;;;4.80;99.90;;;;;;5035701;28;20185;-89
2022/02/19 04:49:01;;;;;;;11.47;1.60;;;4.80;99.90;;;;;;5019807;28;20205;-89
2022/02/19 04:51:27;;;;;;;6.90;1.40;;;4.80;99.90;;;;;;5019665;28;20210;-91
2022/02/19 04:53:53;;;;;;;10.80;2.57;;;4.90;99.90;;;;;;5019796;28;20247;-90
2022/02/19 04:56:18;;;;;;;8.57;1.57;;;4.90;99.90;;;;;;5019383;28;20197;-88
2022/02/19 04:58:45;;;;;;;6.53;1.60;;;4.90;99.90;;;;;;5019620;28;20301;-89
2022/02/19 05:01:10;;;;;;;9.03;1.60;;;4.80;99.90;;;;;;5019183;28;20583;-88
2022/02/19 05:03:36;;;;;;;7.07;1.67;;;4.80;99.90;;;;;;5019614;28;20251;-85
2022/02/19 05:06:03;;;;;;;7.27;1.43;;;4.80;99.90;;;;;;5019178;28;20186;-89
2022/02/19 05:08:29;;;;;;;10.07;1.70;;;4.70;99.90;;;;;;5019357;28;20213;-86
2022/02/19 05:10:55;;;;;;;4.17;1.00;;;4.70;99.90;;;;;;5019290;28;20394;-90
2022/02/19 05:13:20;;;;;;;11.60;1.97;;;4.70;99.90;;;;;;5019145;28;20182;-91
2022/02/19 05:15:46;;;;;;;9.13;1.73;;;4.60;99.90;;;;;;5036447;28;20205;-87
2022/02/19 05:18:14;;;;;;;4.97;1.33;;;4.60;99.90;;;;;;5019094;28;20541;-90
2022/02/19 05:20:41;;;;;;;7.87;1.40;;;4.60;99.90;;;;;;5019311;28;20175;-90
2022/02/19 05:23:07;;;;;;;8.63;1.60;;;4.60;99.90;;;;;;5018947;28;20182;-87
2022/02/19 05:25:32;;;;;;;6.63;1.87;;;4.60;99.90;;;;;;5019012;28;20181;-87
2022/02/19 05:27:58;;;;;;;4.10;1.60;;;4.50;99.90;;;;;;5018934;28;20265;-88
2022/02/19 05:30:24;;;;;;;4.30;1.03;;;4.50;99.90;;;;;;5018325;28;20186;-89
2022/02/19 05:32:51;;;;;;;8.80;1.83;;;4.50;99.90;;;;;;5018921;28;20179;-89
2022/02/19 05:35:17;;;;;;;11.93;1.87;;;4.50;99.90;;;;;;5035405;28;20662;-88
2022/02/19 05:37:43;;;;;;;4.50;1.43;;;4.50;99.90;;;;;;5018348;28;20297;-89
2022/02/19 05:40:11;;;;;;;7.30;1.47;;;4.50;99.90;;;;;;5018645;28;20230;-90
2022/02/19 05:42:37;;;;;;;8.17;1.43;;;4.50;99.90;;;;;;5018623;28;20620;-88
2022/02/19 05:45:04;;;;;;;7.47;1.60;;;4.50;99.90;;;;;;5036061;28;20167;-88
2022/02/19 05:47:30;;;;;;;7.97;1.33;;;4.50;99.90;;;;;;5018571;28;20202;-87
2022/02/19 05:49:57;;;;;;;7.20;1.57;;;4.50;99.90;;;;;;5018479;28;20182;-87
2022/02/19 05:52:23;;;;;;;7.07;1.70;;;4.50;99.90;;;;;;5018600;28;20209;-88
2022/02/19 05:54:49;;;;;;;5.07;1.47;;;4.50;99.90;;;;;;5018501;28;20194;-88
2022/02/19 05:57:18;;;;;;;9.63;1.63;;;4.50;99.90;;;;;;5018089;28;20178;-91
2022/02/19 05:59:43;;;;;;;6.57;1.90;;;4.40;99.90;;;;;;5018374;28;20197;-87
2022/02/19 06:02:09;;;;;;;7.57;1.70;;;4.50;99.90;;;;;;5018152;28;20178;-89
2022/02/19 06:04:34;;;;;;;14.27;2.57;;;4.40;99.90;;;;;;5018306;28;20182;-90
2022/02/19 06:07:00;;;;;;;10.47;2.03;;;4.50;99.90;;;;;;5018366;28;20234;-91
2022/02/19 06:09:26;;;;;;;5.60;1.60;;;4.50;99.90;;;;;;5018098;28;20174;-88
2022/02/19 06:11:51;;;;;;;6.23;1.60;;;4.50;99.90;;;;;;5018288;28;20194;-90
2022/02/19 06:14:17;;;;;;;6.83;2.13;;;4.50;99.90;;;;;;5018308;28;20175;-92
2022/02/19 06:16:43;;;;;;;7.60;1.13;;;4.50;99.90;;;;;;5016766;28;20195;-88
2022/02/19 06:19:08;;;;;;;4.20;1.43;;;4.50;99.90;;;;;;5016618;28;20222;-91
2022/02/19 06:21:34;;;;;;;9.13;1.70;;;4.50;99.90;;;;;;5035288;28;20179;-89
2022/02/19 06:24:00;;;;;;;6.07;1.30;;;4.50;99.90;;;;;;5034770;28;20182;-89
2022/02/19 06:26:25;;;;;;;6.87;1.53;;;4.40;99.90;;;;;;5017570;28;20586;-90
2022/02/19 06:28:51;;;;;;;8.47;1.70;;;4.40;99.90;;;;;;5017561;28;20197;-90
2022/02/19 06:31:17;;;;;;;7.47;1.50;;;4.40;99.90;;;;;;5016906;28;20237;-87
2022/02/19 06:33:43;;;;;;;6.60;1.63;;;4.30;99.90;;;;;;5016843;28;20193;-88
2022/02/19 06:36:08;;;;;;;7.27;1.53;;;4.30;99.90;;;;;;5017555;28;20178;-89
2022/02/19 06:38:39;;;;;;;8.17;1.67;;;4.30;99.90;;;;;;5016593;28;20711;-88
2022/02/19 06:41:09;;;;;;;7.77;2.00;;;4.20;99.90;;;;;;5016496;28;20186;-88
2022/02/19 06:43:35;;;;;;;10.57;1.30;;;4.20;99.90;;;;;;5016198;28;20181;-86
2022/02/19 06:46:02;;;;;;;11.57;1.60;;;4.20;99.90;;;;;;5033421;28;20668;-88
2022/02/19 06:48:28;;;;;;;8.27;1.80;;;4.20;99.90;;;;;;5014303;28;20175;-88
2022/02/19 06:50:56;;;;;;;9.37;1.63;;;4.10;99.90;;;;;;5017323;28;20257;-88
2022/02/19 06:53:22;;;;;;;9.00;1.53;;;4.00;99.90;;;;;;5016866;28;20182;-92
2022/02/19 06:55:48;;;;;;;10.30;1.90;;;4.00;99.90;;;;;;5017397;28;20174;-91
2022/02/19 06:58:14;;;;;;;7.13;1.70;;;4.00;99.90;;;;;;5017161;28;20233;-86
2022/02/19 07:00:40;;;;;;;9.83;1.60;;;4.00;99.90;;;;;;5034502;28;20631;-91
2022/02/19 07:03:06;;;;;;;7.60;1.73;;;4.00;99.90;;;;;;5017438;28;20582;-91
2022/02/19 07:05:31;;;;;;;12.10;1.93;;;3.90;99.90;;;;;;5017512;28;20263;-87
2022/02/19 07:07:57;;;;;;;7.97;1.57;;;4.00;99.90;;;;;;5017381;28;20181;-89
2022/02/19 07:10:23;;;;;;;13.30;1.90;;;4.00;99.90;;;;;;5016745;28;20183;-88
2022/02/19 07:12:48;;;;;;;12.07;1.80;;;4.00;99.90;;;;;;5017457;28;20178;-91
2022/02/19 07:15:20;;;;;;;4.73;1.50;;;4.00;99.90;;;;;;5017337;28;20201;-90
2022/02/19 07:17:54;;;;;;;10.07;1.97;;;4.00;99.90;;;;;;5016907;28;20292;-89
2022/02/19 07:20:23;;;;;;;16.40;2.80;;;4.00;99.90;;;;;;5024019;28;20240;-90
2022/02/19 07:22:50;;;;;;;11.40;1.90;;;4.00;99.90;;;;;;5013556;28;20186;-90
2022/02/19 07:25:16;;;;;;;11.37;2.37;;;4.00;99.90;;;;;;5030918;28;20192;-87
2022/02/19 07:27:44;;;;;;;6.87;1.73;;;4.00;99.90;;;;;;5026925;28;20190;-91
2022/02/19 07:30:13;;;;;;;5.70;1.63;;;4.00;99.90;;;;;;5007086;28;20194;-91
2022/02/19 07:32:39;;;;;;;8.73;1.70;;;4.00;99.90;;;;;;5030556;28;20611;-91
2022/02/19 07:35:08;;;;;;;9.03;1.80;;;3.90;99.90;;;;;;5017101;28;20187;-91
2022/02/19 07:37:34;;;;;;;6.27;1.77;;;4.00;99.90;;;;;;5017064;28;20194;-90
2022/02/19 07:40:00;;;;;;;12.63;1.80;;;4.00;99.90;;;;;;5017120;28;20230;-90
2022/02/19 07:42:26;;;;;;;10.57;1.87;;;4.00;99.90;;;;;;5017108;28;20730;-92
2022/02/19 07:44:53;;;;;;;9.47;1.97;;;4.00;99.90;;;;;;5016421;28;20183;-91
2022/02/19 07:47:29;;;;;;;8.80;1.87;;;4.00;99.90;;;;;;5017189;28;20552;-94
2022/02/19 07:58:26;;;;;;;12.30;2.20;;;4.10;99.90;;;;;;5037623;28;20229;-93
2022/02/19 08:01:01;;;;;;;13.60;2.13;;;4.20;99.90;;;;;;5037249;28;20236;-91
2022/02/19 08:03:29;;;;;;;9.50;1.90;;;4.30;99.90;;;;;;5020359;28;20170;-91
2022/02/19 08:05:59;;;;;;;16.10;2.07;;;4.40;99.90;;;;;;5021400;28;20403;-91
2022/02/19 08:08:25;;;;;;;9.27;1.47;;;4.60;99.90;;;;;;5020746;28;20179;-91
2022/02/19 08:10:51;;;;;;;10.37;1.77;;;4.60;99.90;;;;;;5018752;28;20273;-93
2022/02/19 08:13:18;;;;;;;9.03;2.13;;;4.70;99.90;;;;;;5020522;28;20171;-91
2022/02/19 08:15:49;;;;;;;12.13;1.90;;;4.80;99.90;;;;;;5015022;28;20294;-93
2022/02/19 08:18:15;;;;;;;11.47;1.97;;;4.80;99.90;;;;;;5017673;28;20211;-93
2022/02/19 08:20:43;;;;;;;5.97;1.57;;;4.80;99.90;;;;;;5018765;28;20262;-91
2022/02/19 08:23:10;;;;;;;10.87;1.63;;;4.90;99.90;;;;;;5015175;28;20264;-94
2022/02/19 08:25:36;;;;;;;7.93;1.57;;;5.00;99.90;;;;;;5016641;28;20198;-91
2022/02/19 08:28:05;;;;;;;6.73;1.60;;;5.00;99.90;;;;;;5020761;28;20597;-92
2022/02/19 08:30:35;;;;;;;9.70;1.67;;;5.10;99.90;;;;;;5019947;28;20268;-95
2022/02/19 08:33:01;;;;;;;7.97;1.93;;;5.00;99.90;;;;;;5018931;28;20174;-89
2022/02/19 08:35:27;;;;;;;4.90;1.43;;;5.10;99.90;;;;;;5018855;28;20186;-90
2022/02/19 08:37:52;;;;;;;7.20;1.83;;;5.00;99.90;;;;;;5024022;28;20205;-91
2022/02/19 08:40:18;;;;;;;8.40;2.00;;;5.00;99.90;;;;;;5038243;28;20232;-91
2022/02/19 08:42:44;;;;;;;8.37;1.90;;;5.10;99.90;;;;;;5038974;28;20269;-91
2022/02/19 08:45:11;;;;;;;5.60;1.40;;;5.00;99.90;;;;;;5039524;28;20201;-90
2022/02/19 08:47:37;;;;;;;11.30;1.90;;;5.00;99.90;;;;;;5005442;28;20191;-92
2022/02/19 08:50:05;;;;;;;9.63;2.07;;;5.10;99.90;;;;;;5001777;28;20175;-91
2022/02/19 08:52:31;;;;;;;5.73;1.60;;;5.10;99.90;;;;;;5039466;28;20192;-94
2022/02/19 08:54:58;;;;;;;10.43;2.67;;;5.10;99.90;;;;;;5030084;28;20566;-90
2022/02/19 08:57:24;;;;;;;14.63;2.57;;;5.10;99.90;;;;;;5027193;28;20182;-93
2022/02/19 08:59:50;;;;;;;12.10;2.13;;;5.10;99.90;;;;;;5018776;28;20182;-91
2022/02/19 09:02:15;;;;;;;11.93;2.03;;;5.10;99.90;;;;;;5009547;28;20170;-90
2022/02/19 09:04:41;;;;;;;11.93;2.30;;;5.10;99.90;;;;;;5030625;28;20646;-92
2022/02/19 09:07:07;;;;;;;7.47;2.00;;;5.10;99.90;;;;;;5024356;28;20178;-91
2022/02/19 09:09:36;;;;;;;10.03;1.80;;;5.10;99.90;;;;;;5036819;28;20485;-90
2022/02/19 09:12:05;;;;;;;13.90;2.17;;;5.10;99.90;;;;;;5054405;28;20261;-91
2022/02/19 09:14:31;;;;;;;13.33;2.20;;;5.10;99.90;;;;;;5036872;28;20260;-92
2022/02/19 09:16:57;;;;;;;11.90;1.80;;;5.20;99.90;;;;;;5056382;28;20223;-90
2022/02/19 09:19:24;;;;;;;8.77;1.93;;;5.20;99.90;;;;;;5034406;28;20228;-92
2022/02/19 09:21:49;;;;;;;11.63;2.40;;;5.30;99.90;;;;;;5039045;28;20587;-90
2022/02/19 09:24:15;;;;;;;10.47;2.17;;;5.30;99.90;;;;;;5038020;28;20244;-90
2022/02/19 09:26:40;;;;;;;6.33;1.63;;;5.40;99.90;;;;;;5037844;28;20166;-90
2022/02/19 09:29:06;;;;;;;9.53;1.70;;;5.30;99.90;;;;;;5029465;28;20518;-91
2022/02/19 09:31:32;;;;;;;8.53;2.20;;;5.30;99.90;;;;;;4999416;28;20183;-91
2022/02/19 09:33:57;;;;;;;10.20;1.87;;;5.30;99.90;;;;;;4999415;28;20230;-92
2022/02/19 09:36:23;;;;;;;13.97;2.43;;;5.30;99.90;;;;;;5000071;28;20187;-91
2022/02/19 09:38:49;;;;;;;10.33;2.10;;;5.30;99.90;;;;;;5015440;28;20215;-91
2022/02/19 09:41:15;;;;;;;10.43;2.33;;;5.40;99.90;;;;;;4999155;28;20277;-91
2022/02/19 09:43:41;;;;;;;10.33;2.00;;;5.40;99.90;;;;;;4999013;28;20222;-91
2022/02/19 09:46:08;;;;;;;7.83;1.63;;;5.30;99.90;;;;;;5018934;28;20183;-88
2022/02/19 09:48:34;;;;;;;11.13;1.87;;;5.30;99.90;;;;;;5018201;28;20190;-87
2022/02/19 09:51:00;;;;;;;12.23;2.13;;;5.30;99.90;;;;;;5017584;28;20189;-89
2022/02/19 09:53:27;;;;;;;9.33;1.83;;;5.30;99.90;;;;;;5035288;28;20272;-89
2022/02/19 09:55:53;;;;;;;11.00;1.70;;;5.20;99.90;;;;;;5037774;28;20178;-90
2022/02/19 09:58:19;;;;;;;7.87;2.00;;;5.30;99.90;;;;;;5038120;28;20217;-88
2022/02/19 10:00:46;;;;;;;11.27;1.83;;;5.30;99.90;;;;;;5018402;28;20231;-86
2022/02/19 10:03:23;;;;;;;12.73;2.13;;;5.30;99.90;;;;;;5031163;28;20190;-90
2022/02/19 10:05:49;;;;;;;12.13;1.87;;;5.30;99.90;;;;;;5034066;28;20190;-90
2022/02/19 10:08:15;;;;;;;10.50;1.70;;;5.30;99.90;;;;;;5033846;28;20178;-87
2022/02/19 10:10:52;;;;;;;9.60;2.27;;;5.30;99.90;;;;;;5035858;28;20171;-88
2022/02/19 10:13:31;;;;;;;9.37;1.90;;;5.20;99.90;;;;;;5037608;28;20181;-88
2022/02/19 10:15:58;;;;;;;9.70;2.50;;;5.30;99.90;;;;;;5030718;28;20176;-91
2022/02/19 10:18:30;;;;;;;6.77;1.83;;;5.30;99.90;;;;;;5032861;28;20221;-89
2022/02/19 10:21:28;;;;;;;7.30;1.77;;;5.40;99.90;;;;;;5024958;28;20605;-88
2022/02/19 10:23:56;;;;;;;15.97;2.40;;;5.50;99.90;;;;;;4982524;28;20501;-88
2022/02/19 10:26:27;;;;;;;9.73;1.73;;;5.50;99.90;;;;;;5036157;28;20308;-90
2022/02/19 10:29:01;;;;;;;11.03;1.87;;;5.50;99.90;;;;;;5049650;28;20690;-88
2022/02/19 10:31:27;;;;;;;7.50;1.50;;;5.50;99.90;;;;;;5017275;28;20174;-89
2022/02/19 10:34:13;;;;;;;10.10;1.50;;;5.50;99.90;;;;;;5017160;28;20296;-89
2022/02/19 10:36:54;;;;;;;7.53;1.63;;;5.50;99.90;;;;;;5017268;28;20170;-88
2022/02/19 10:39:31;;;;;;;7.63;2.00;;;5.60;99.90;;;;;;5017495;28;20237;-89
2022/02/19 10:42:03;;;;;;;13.27;2.33;;;5.60;99.90;;;;;;5017760;28;20186;-89
2022/02/19 10:44:36;;;;;;;7.93;1.60;;;5.50;99.90;;;;;;5017775;28;20174;-88
2022/02/19 10:47:17;;;;;;;9.83;2.00;;;5.50;99.90;;;;;;5017456;28;20178;-89
2022/02/19 10:50:07;;;;;;;6.17;1.87;;;5.50;99.90;;;;;;5017726;28;20179;-89
2022/02/19 10:52:33;;;;;;;7.20;1.80;;;5.60;99.90;;;;;;5017415;28;20191;-88
2022/02/19 10:55:11;;;;;;;6.53;1.57;;;5.60;99.90;;;;;;5017715;28;20601;-91
2022/02/19 10:57:42;;;;;;;7.23;2.10;;;5.60;99.90;;;;;;5016784;28;20206;-90
2022/02/19 11:00:13;;;;;;;7.37;1.90;;;5.50;99.90;;;;;;5017736;28;20261;-91
2022/02/19 11:02:40;;;;;;;5.60;1.93;;;5.50;99.90;;;;;;5017169;28;20190;-88
2022/02/19 11:05:08;;;;;;;10.50;1.93;;;5.50;99.90;;;;;;5035130;28;20175;-90
2022/02/19 11:07:38;;;;;;;9.37;2.00;;;5.50;99.90;;;;;;5017566;28;20214;-89
2022/02/19 11:10:12;;;;;;;11.07;1.77;;;5.40;99.90;;;;;;5017175;28;20684;-91
2022/02/19 11:12:38;;;;;;;9.20;2.53;;;5.40;99.90;;;;;;5017289;28;20178;-88
2022/02/19 11:15:06;;;;;;;10.47;1.87;;;5.40;99.90;;;;;;5017176;28;20181;-88
2022/02/19 11:17:34;;;;;;;7.17;1.73;;;5.40;99.90;;;;;;5028140;28;20697;-87
2022/02/19 11:20:01;;;;;;;10.03;1.80;;;5.40;99.90;;;;;;5015338;28;20249;-88
2022/02/19 11:22:31;;;;;;;8.77;1.60;;;5.60;99.90;;;;;;5014937;28;20183;-90
2022/02/19 11:25:02;;;;;;;9.60;2.47;;;5.70;99.90;;;;;;5015873;28;20285;-90
2022/02/19 11:27:36;;;;;;;8.30;1.87;;;5.80;99.90;;;;;;5015412;28;20692;-87
2022/02/19 11:30:06;;;;;;;7.93;1.33;;;5.80;99.90;;;;;;5018899;28;20210;-87
2022/02/19 11:32:36;;;;;;;7.00;1.87;;;5.90;99.90;;;;;;5017609;28;20273;-88
2022/02/19 11:35:03;;;;;;;12.00;2.10;;;5.80;99.90;;;;;;5018010;28;20186;-88
2022/02/19 11:37:36;;;;;;;11.57;2.17;;;5.70;99.90;;;;;;5019292;28;20478;-88
2022/02/19 11:40:10;;;;;;;11.87;2.03;;;5.70;99.90;;;;;;5017468;28;20254;-90
2022/02/19 11:42:37;;;;;;;7.40;1.77;;;5.80;99.90;;;;;;5019474;28;20212;-89
2022/02/19 11:45:24;;;;;;;9.63;1.93;;;5.80;99.90;;;;;;5017586;28;20194;-89
2022/02/19 11:48:11;;;;;;;6.77;1.47;;;5.70;99.90;;;;;;5018827;28;20629;-90
2022/02/19 11:50:42;;;;;;;8.07;2.03;;;5.70;99.90;;;;;;5018922;28;20183;-89
2022/02/19 11:53:10;;;;;;;9.80;2.00;;;5.80;99.90;;;;;;5019220;28;20210;-87
2022/02/19 11:55:44;;;;;;;6.63;1.50;;;5.80;99.90;;;;;;5037112;28;20178;-89
2022/02/19 11:58:12;;;;;;;8.70;1.90;;;5.80;99.90;;;;;;5017389;28;20206;-89
2022/02/19 12:00:51;;;;;;;11.77;2.00;;;5.90;99.90;;;;;;5019531;28;20564;-89
2022/02/19 12:03:32;;;;;;;7.37;1.67;;;5.90;99.90;;;;;;5018721;28;20228;-89
2022/02/19 12:06:06;;;;;;;16.53;1.87;;;5.90;99.90;;;;;;5036491;28;20209;-90
2022/02/19 12:08:51;;;;;;;9.93;1.73;;;5.90;99.90;;;;;;5036708;28;20542;-89
2022/02/19 12:11:22;;;;;;;10.60;2.10;;;6.00;99.90;;;;;;5018695;28;20200;-89
2022/02/19 12:13:50;;;;;;;12.13;1.73;;;6.00;99.90;;;;;;5019205;28;20182;-89
2022/02/19 12:16:39;;;;;;;10.33;1.80;;;6.00;99.90;;;;;;5018855;28;20191;-87
2022/02/19 12:19:07;;;;;;;11.53;2.17;;;6.20;99.90;;;;;;5030803;28;20209;-89
2022/02/19 12:21:33;;;;;;;11.67;2.53;;;6.20;99.90;;;;;;5032595;28;20178;-89
2022/02/19 12:24:25;;;;;;;12.27;2.20;;;6.20;99.90;;;;;;5018984;28;20182;-88
2022/02/19 12:26:57;;;;;;;6.20;1.33;;;6.20;99.90;;;;;;5017354;28;20194;-88
2022/02/19 12:29:35;;;;;;;7.73;1.50;;;6.20;99.90;;;;;;5018435;28;20891;-89
2022/02/19 12:32:06;;;;;;;7.13;1.57;;;6.20;99.90;;;;;;5015607;28;20190;-85
2022/02/19 12:34:35;;;;;;;12.63;1.87;;;6.20;99.90;;;;;;5030338;28;20187;-86
2022/02/19 12:37:02;;;;;;;5.83;1.87;;;6.20;99.90;;;;;;5016741;28;20190;-87
2022/02/19 12:39:28;;;;;;;8.43;1.60;;;6.20;99.90;;;;;;5015127;28;20300;-88
2022/02/19 12:41:58;;;;;;;10.27;1.53;;;6.20;99.90;;;;;;5033455;28;20210;-85
2022/02/19 12:44:25;;;;;;;7.63;1.67;;;6.20;99.90;;;;;;5014842;28;20190;-89
2022/02/19 12:46:52;;;;;;;10.03;1.63;;;6.20;99.90;;;;;;5016909;28;20205;-88
2022/02/19 12:49:20;;;;;;;8.37;1.47;;;6.10;99.90;;;;;;5017669;28;20266;-88
2022/02/19 12:51:59;;;;;;;7.03;2.03;;;6.10;99.90;;;;;;5013734;28;20228;-88
2022/02/19 12:54:38;;;;;;;10.50;2.00;;;6.20;99.90;;;;;;5009634;28;20190;-88
2022/02/19 12:57:05;;;;;;;4.60;1.30;;;6.10;99.90;;;;;;5012971;28;20215;-87
2022/02/19 12:59:33;;;;;;;5.60;1.43;;;6.10;99.90;;;;;;5013123;28;20213;-87
2022/02/19 13:02:00;;;;;;;6.57;1.43;;;6.10;99.90;;;;;;5016427;28;20631;-88
2022/02/19 13:04:34;;;;;;;8.87;1.53;;;6.10;99.90;;;;;;5013081;28;20325;-89
2022/02/19 13:07:01;;;;;;;8.27;1.87;;;6.20;99.90;;;;;;5035611;28;20240;-88